sensor_id;sensor_type;location;lat;lon;timestamp;P1;durP1;ratioP1;P2;durP2;ratioP2
45863;SDS011;31579;52.354;16.974;2022-10-16T00:01:17;32.90;;;19.60;;
45863;SDS011;31579;52.354;16.974;2022-10-16T00:06:13;32.90;;;19.60;;
45863;SDS011;31579;52.354;16.974;2022-10-16T00:11:16;34.30;;;19.70;;
45863;SDS011;31579;52.354;16.974;2022-10-16T00:16:13;34.30;;;19.70;;
45863;SDS011;31579;52.354;16.974;2022-10-16T00:21:14;32.20;;;19.40;;
45863;SDS011;31579;52.354;16.974;2022-10-16T00:26:13;32.20;;;19.40;;
45863;SDS011;31579;52.354;16.974;2022-10-16T00:31:13;32.60;;;18.80;;
45863;SDS011;31579;52.354;16.974;2022-10-16T00:36:14;32.60;;;18.80;;
45863;SDS011;31579;52.354;16.974;2022-10-16T00:41:15;28.00;;;17.20;;
45863;SDS011;31579;52.354;16.974;2022-10-16T00:46:17;28.00;;;17.20;;
45863;SDS011;31579;52.354;16.974;2022-10-16T00:51:13;27.60;;;15.90;;
45863;SDS011;31579;52.354;16.974;2022-10-16T00:56:13;27.60;;;15.90;;
45863;SDS011;31579;52.354;16.974;2022-10-16T01:01:13;29.60;;;16.80;;
45863;SDS011;31579;52.354;16.974;2022-10-16T01:11:20;26.00;;;15.70;;
45863;SDS011;31579;52.354;16.974;2022-10-16T01:16:15;26.00;;;15.70;;
45863;SDS011;31579;52.354;16.974;2022-10-16T01:21:16;28.10;;;16.50;;
45863;SDS011;31579;52.354;16.974;2022-10-16T01:31:14;26.00;;;15.80;;
45863;SDS011;31579;52.354;16.974;2022-10-16T01:36:15;26.00;;;15.80;;
45863;SDS011;31579;52.354;16.974;2022-10-16T01:44:21;25.50;;;15.60;;
45863;SDS011;31579;52.354;16.974;2022-10-16T01:49:21;24.20;;;15.70;;
45863;SDS011;31579;52.354;16.974;2022-10-16T01:54:20;24.20;;;15.70;;
45863;SDS011;31579;52.354;16.974;2022-10-16T01:59:21;26.40;;;15.20;;
45863;SDS011;31579;52.354;16.974;2022-10-16T02:04:24;26.40;;;15.20;;
45863;SDS011;31579;52.354;16.974;2022-10-16T02:14:19;27.00;;;16.30;;
45863;SDS011;31579;52.354;16.974;2022-10-16T02:19:19;25.50;;;16.20;;
45863;SDS011;31579;52.354;16.974;2022-10-16T02:20:32;25.50;;;16.20;;
45863;SDS011;31579;52.354;16.974;2022-10-16T02:35:28;26.20;;;16.20;;
45863;SDS011;31579;52.354;16.974;2022-10-16T02:40:28;27.20;;;17.20;;
45863;SDS011;31579;52.354;16.974;2022-10-16T02:49:02;27.20;;;17.00;;
45863;SDS011;31579;52.354;16.974;2022-10-16T02:54:02;27.20;;;17.00;;
45863;SDS011;31579;52.354;16.974;2022-10-16T02:59:02;26.30;;;16.30;;
45863;SDS011;31579;52.354;16.974;2022-10-16T03:04:02;26.30;;;16.30;;
45863;SDS011;31579;52.354;16.974;2022-10-16T03:09:02;28.10;;;18.10;;
45863;SDS011;31579;52.354;16.974;2022-10-16T03:14:06;28.10;;;18.10;;
45863;SDS011;31579;52.354;16.974;2022-10-16T03:19:02;30.20;;;19.20;;
45863;SDS011;31579;52.354;16.974;2022-10-16T03:24:02;30.20;;;19.20;;
45863;SDS011;31579;52.354;16.974;2022-10-16T03:29:03;32.00;;;18.50;;
45863;SDS011;31579;52.354;16.974;2022-10-16T03:34:02;32.00;;;18.50;;
45863;SDS011;31579;52.354;16.974;2022-10-16T03:39:02;31.00;;;18.50;;
45863;SDS011;31579;52.354;16.974;2022-10-16T03:44:02;31.00;;;18.50;;
45863;SDS011;31579;52.354;16.974;2022-10-16T03:49:02;32.70;;;19.00;;
45863;SDS011;31579;52.354;16.974;2022-10-16T03:54:02;32.70;;;19.00;;
45863;SDS011;31579;52.354;16.974;2022-10-16T04:02:52;34.00;;;20.50;;
45863;SDS011;31579;52.354;16.974;2022-10-16T04:07:52;34.40;;;19.80;;
45863;SDS011;31579;52.354;16.974;2022-10-16T04:12:52;34.40;;;19.80;;
45863;SDS011;31579;52.354;16.974;2022-10-16T04:15:11;34.40;;;19.80;;
45863;SDS011;31579;52.354;16.974;2022-10-16T04:20:09;33.00;;;19.60;;
45863;SDS011;31579;52.354;16.974;2022-10-16T04:25:09;33.00;;;19.60;;
45863;SDS011;31579;52.354;16.974;2022-10-16T04:30:09;28.30;;;18.00;;
45863;SDS011;31579;52.354;16.974;2022-10-16T04:35:09;28.30;;;18.00;;
45863;SDS011;31579;52.354;16.974;2022-10-16T04:40:09;32.20;;;19.70;;
45863;SDS011;31579;52.354;16.974;2022-10-16T04:45:13;32.20;;;19.70;;
45863;SDS011;31579;52.354;16.974;2022-10-16T04:50:09;31.50;;;19.50;;
45863;SDS011;31579;52.354;16.974;2022-10-16T04:55:09;31.50;;;19.50;;
45863;SDS011;31579;52.354;16.974;2022-10-16T04:59:04;30.50;;;18.80;;
45863;SDS011;31579;52.354;16.974;2022-10-16T05:04:02;30.50;;;18.80;;
45863;SDS011;31579;52.354;16.974;2022-10-16T05:09:02;28.80;;;18.50;;
45863;SDS011;31579;52.354;16.974;2022-10-16T05:14:02;28.80;;;18.50;;
45863;SDS011;31579;52.354;16.974;2022-10-16T05:19:02;31.30;;;18.50;;
45863;SDS011;31579;52.354;16.974;2022-10-16T05:24:02;31.30;;;18.50;;
45863;SDS011;31579;52.354;16.974;2022-10-16T05:29:05;32.70;;;19.40;;
45863;SDS011;31579;52.354;16.974;2022-10-16T05:34:02;32.70;;;19.40;;
45863;SDS011;31579;52.354;16.974;2022-10-16T05:39:02;31.80;;;19.00;;
45863;SDS011;31579;52.354;16.974;2022-10-16T05:44:04;31.80;;;19.00;;
45863;SDS011;31579;52.354;16.974;2022-10-16T05:49:02;29.10;;;18.80;;
45863;SDS011;31579;52.354;16.974;2022-10-16T05:54:02;29.10;;;18.80;;
45863;SDS011;31579;52.354;16.974;2022-10-16T05:59:03;28.70;;;18.30;;
45863;SDS011;31579;52.354;16.974;2022-10-16T06:04:02;28.70;;;18.30;;
45863;SDS011;31579;52.354;16.974;2022-10-16T06:09:02;29.50;;;18.50;;
45863;SDS011;31579;52.354;16.974;2022-10-16T06:14:02;29.50;;;18.50;;
45863;SDS011;31579;52.354;16.974;2022-10-16T06:19:02;28.20;;;18.10;;
45863;SDS011;31579;52.354;16.974;2022-10-16T06:24:02;28.20;;;18.10;;
45863;SDS011;31579;52.354;16.974;2022-10-16T06:29:02;26.80;;;17.50;;
45863;SDS011;31579;52.354;16.974;2022-10-16T06:34:02;26.80;;;17.50;;
45863;SDS011;31579;52.354;16.974;2022-10-16T06:39:02;26.10;;;17.60;;
45863;SDS011;31579;52.354;16.974;2022-10-16T06:44:04;26.10;;;17.60;;
45863;SDS011;31579;52.354;16.974;2022-10-16T06:49:02;27.30;;;18.30;;
45863;SDS011;31579;52.354;16.974;2022-10-16T06:54:02;27.30;;;18.30;;
45863;SDS011;31579;52.354;16.974;2022-10-16T06:59:02;25.20;;;17.20;;
45863;SDS011;31579;52.354;16.974;2022-10-16T07:00:58;25.20;;;17.20;;
45863;SDS011;31579;52.354;16.974;2022-10-16T07:05:56;25.20;;;17.20;;
45863;SDS011;31579;52.354;16.974;2022-10-16T07:10:58;24.50;;;16.60;;
45863;SDS011;31579;52.354;16.974;2022-10-16T07:15:56;24.50;;;16.60;;
45863;SDS011;31579;52.354;16.974;2022-10-16T07:17:05;22.50;;;16.10;;
45863;SDS011;31579;52.354;16.974;2022-10-16T07:22:03;22.50;;;16.10;;
45863;SDS011;31579;52.354;16.974;2022-10-16T07:27:03;22.50;;;16.10;;
45863;SDS011;31579;52.354;16.974;2022-10-16T07:32:03;20.30;;;14.50;;
45863;SDS011;31579;52.354;16.974;2022-10-16T07:33:12;20.30;;;14.50;;
45863;SDS011;31579;52.354;16.974;2022-10-16T07:38:10;20.70;;;14.40;;
45863;SDS011;31579;52.354;16.974;2022-10-16T07:43:10;20.70;;;14.40;;
45863;SDS011;31579;52.354;16.974;2022-10-16T07:48:10;19.90;;;14.10;;
45863;SDS011;31579;52.354;16.974;2022-10-16T07:53:10;19.90;;;14.10;;
45863;SDS011;31579;52.354;16.974;2022-10-16T07:58:10;18.90;;;13.20;;
45863;SDS011;31579;52.354;16.974;2022-10-16T08:03:15;18.90;;;13.20;;
45863;SDS011;31579;52.354;16.974;2022-10-16T08:08:12;19.10;;;13.20;;
45863;SDS011;31579;52.354;16.974;2022-10-16T08:13:10;19.10;;;13.20;;
45863;SDS011;31579;52.354;16.974;2022-10-16T08:23:20;16.40;;;12.00;;
45863;SDS011;31579;52.354;16.974;2022-10-16T08:28:20;17.30;;;11.70;;
45863;SDS011;31579;52.354;16.974;2022-10-16T08:33:20;17.30;;;11.70;;
45863;SDS011;31579;52.354;16.974;2022-10-16T08:38:20;16.10;;;11.70;;
45863;SDS011;31579;52.354;16.974;2022-10-16T08:43:23;16.10;;;11.70;;
45863;SDS011;31579;52.354;16.974;2022-10-16T08:58:27;15.20;;;10.00;;
45863;SDS011;31579;52.354;16.974;2022-10-16T09:13:28;13.40;;;9.20;;
45863;SDS011;31579;52.354;16.974;2022-10-16T09:16:27;13.40;;;9.20;;
45863;SDS011;31579;52.354;16.974;2022-10-16T09:26:21;12.50;;;9.40;;
45863;SDS011;31579;52.354;16.974;2022-10-16T09:31:21;15.40;;;9.20;;
45863;SDS011;31579;52.354;16.974;2022-10-16T09:36:21;15.40;;;9.20;;
45863;SDS011;31579;52.354;16.974;2022-10-16T09:41:21;11.90;;;9.10;;
45863;SDS011;31579;52.354;16.974;2022-10-16T09:46:26;11.90;;;9.10;;
45863;SDS011;31579;52.354;16.974;2022-10-16T09:56:22;11.00;;;7.80;;
45863;SDS011;31579;52.354;16.974;2022-10-16T10:01:22;11.40;;;8.10;;
45863;SDS011;31579;52.354;16.974;2022-10-16T10:06:25;11.40;;;8.10;;
45863;SDS011;31579;52.354;16.974;2022-10-16T10:21:21;11.50;;;7.80;;
45863;SDS011;31579;52.354;16.974;2022-10-16T10:26:22;11.50;;;7.80;;
45863;SDS011;31579;52.354;16.974;2022-10-16T10:44:15;12.10;;;8.10;;
45863;SDS011;31579;52.354;16.974;2022-10-16T11:05:09;9.40;;;6.90;;
45863;SDS011;31579;52.354;16.974;2022-10-16T11:09:11;14.20;;;7.20;;
45863;SDS011;31579;52.354;16.974;2022-10-16T11:38:10;7.60;;;5.50;;
45863;SDS011;31579;52.354;16.974;2022-10-16T11:43:14;7.60;;;5.50;;
45863;SDS011;31579;52.354;16.974;2022-10-16T11:53:18;6.30;;;4.50;;
45863;SDS011;31579;52.354;16.974;2022-10-16T12:08:11;8.20;;;5.60;;
45863;SDS011;31579;52.354;16.974;2022-10-16T12:18:07;7.00;;;4.90;;
45863;SDS011;31579;52.354;16.974;2022-10-16T12:23:16;7.00;;;4.90;;
45863;SDS011;31579;52.354;16.974;2022-10-16T12:38:12;4.90;;;3.80;;
45863;SDS011;31579;52.354;16.974;2022-10-16T13:26:49;6.10;;;3.10;;
45863;SDS011;31579;52.354;16.974;2022-10-16T13:31:46;5.40;;;3.40;;
45863;SDS011;31579;52.354;16.974;2022-10-16T13:36:47;5.40;;;3.40;;
45863;SDS011;31579;52.354;16.974;2022-10-16T13:41:46;4.40;;;3.10;;
45863;SDS011;31579;52.354;16.974;2022-10-16T13:46:46;4.40;;;3.10;;
45863;SDS011;31579;52.354;16.974;2022-10-16T13:56:46;4.60;;;3.00;;
45863;SDS011;31579;52.354;16.974;2022-10-16T14:01:46;4.60;;;3.00;;
45863;SDS011;31579;52.354;16.974;2022-10-16T14:09:42;5.00;;;3.00;;
45863;SDS011;31579;52.354;16.974;2022-10-16T14:14:44;5.00;;;3.00;;
45863;SDS011;31579;52.354;16.974;2022-10-16T14:19:45;6.30;;;3.50;;
45863;SDS011;31579;52.354;16.974;2022-10-16T14:24:42;6.30;;;3.50;;
45863;SDS011;31579;52.354;16.974;2022-10-16T14:29:42;7.70;;;5.40;;
45863;SDS011;31579;52.354;16.974;2022-10-16T14:34:52;7.70;;;5.40;;
45863;SDS011;31579;52.354;16.974;2022-10-16T14:39:42;5.30;;;3.70;;
45863;SDS011;31579;52.354;16.974;2022-10-16T14:44:42;5.30;;;3.70;;
45863;SDS011;31579;52.354;16.974;2022-10-16T14:49:42;5.80;;;3.60;;
45863;SDS011;31579;52.354;16.974;2022-10-16T14:54:43;5.80;;;3.60;;
45863;SDS011;31579;52.354;16.974;2022-10-16T14:59:42;5.60;;;3.40;;
45863;SDS011;31579;52.354;16.974;2022-10-16T15:04:42;5.60;;;3.40;;
45863;SDS011;31579;52.354;16.974;2022-10-16T15:09:42;5.00;;;3.50;;
45863;SDS011;31579;52.354;16.974;2022-10-16T15:14:42;5.00;;;3.50;;
45863;SDS011;31579;52.354;16.974;2022-10-16T15:19:42;5.80;;;4.00;;
45863;SDS011;31579;52.354;16.974;2022-10-16T15:24:42;5.80;;;4.00;;
45863;SDS011;31579;52.354;16.974;2022-10-16T15:27:10;6.60;;;4.60;;
45863;SDS011;31579;52.354;16.974;2022-10-16T15:32:09;6.60;;;4.60;;
45863;SDS011;31579;52.354;16.974;2022-10-16T15:37:08;6.60;;;4.60;;
45863;SDS011;31579;52.354;16.974;2022-10-16T15:42:08;7.00;;;4.60;;
45863;SDS011;31579;52.354;16.974;2022-10-16T15:47:08;7.00;;;4.60;;
45863;SDS011;31579;52.354;16.974;2022-10-16T15:52:08;6.40;;;4.60;;
45863;SDS011;31579;52.354;16.974;2022-10-16T15:57:11;6.40;;;4.60;;
45863;SDS011;31579;52.354;16.974;2022-10-16T16:02:09;7.10;;;4.60;;
45863;SDS011;31579;52.354;16.974;2022-10-16T16:07:08;7.10;;;4.60;;
45863;SDS011;31579;52.354;16.974;2022-10-16T16:12:08;7.10;;;5.00;;
45863;SDS011;31579;52.354;16.974;2022-10-16T16:17:08;7.10;;;5.00;;
45863;SDS011;31579;52.354;16.974;2022-10-16T16:22:08;13.90;;;6.40;;
45863;SDS011;31579;52.354;16.974;2022-10-16T16:27:08;13.90;;;6.40;;
45863;SDS011;31579;52.354;16.974;2022-10-16T16:32:08;7.90;;;5.30;;
45863;SDS011;31579;52.354;16.974;2022-10-16T16:37:08;7.90;;;5.30;;
45863;SDS011;31579;52.354;16.974;2022-10-16T16:42:08;9.20;;;6.60;;
45863;SDS011;31579;52.354;16.974;2022-10-16T16:47:08;9.20;;;6.60;;
45863;SDS011;31579;52.354;16.974;2022-10-16T16:52:08;11.00;;;7.10;;
45863;SDS011;31579;52.354;16.974;2022-10-16T16:57:08;11.00;;;7.10;;
45863;SDS011;31579;52.354;16.974;2022-10-16T17:02:09;9.60;;;6.70;;
45863;SDS011;31579;52.354;16.974;2022-10-16T17:07:08;9.60;;;6.70;;
45863;SDS011;31579;52.354;16.974;2022-10-16T17:12:08;10.30;;;7.10;;
45863;SDS011;31579;52.354;16.974;2022-10-16T17:17:08;10.30;;;7.10;;
45863;SDS011;31579;52.354;16.974;2022-10-16T17:22:08;10.80;;;7.30;;
45863;SDS011;31579;52.354;16.974;2022-10-16T17:27:08;10.80;;;7.30;;
45863;SDS011;31579;52.354;16.974;2022-10-16T17:32:08;11.50;;;8.10;;
45863;SDS011;31579;52.354;16.974;2022-10-16T17:37:08;11.50;;;8.10;;
45863;SDS011;31579;52.354;16.974;2022-10-16T17:42:08;12.80;;;8.60;;
45863;SDS011;31579;52.354;16.974;2022-10-16T17:47:08;12.80;;;8.60;;
45863;SDS011;31579;52.354;16.974;2022-10-16T17:52:08;12.40;;;8.60;;
45863;SDS011;31579;52.354;16.974;2022-10-16T17:57:08;12.40;;;8.60;;
45863;SDS011;31579;52.354;16.974;2022-10-16T18:02:09;13.50;;;9.20;;
45863;SDS011;31579;52.354;16.974;2022-10-16T18:07:09;13.50;;;9.20;;
45863;SDS011;31579;52.354;16.974;2022-10-16T18:12:08;14.20;;;9.70;;
45863;SDS011;31579;52.354;16.974;2022-10-16T18:17:09;14.20;;;9.70;;
45863;SDS011;31579;52.354;16.974;2022-10-16T18:22:08;15.30;;;10.20;;
45863;SDS011;31579;52.354;16.974;2022-10-16T18:27:08;15.30;;;10.20;;
45863;SDS011;31579;52.354;16.974;2022-10-16T18:32:08;20.40;;;12.20;;
45863;SDS011;31579;52.354;16.974;2022-10-16T18:37:08;20.40;;;12.20;;
45863;SDS011;31579;52.354;16.974;2022-10-16T18:42:08;22.30;;;13.90;;
45863;SDS011;31579;52.354;16.974;2022-10-16T18:47:08;22.30;;;13.90;;
45863;SDS011;31579;52.354;16.974;2022-10-16T18:52:08;23.40;;;14.20;;
45863;SDS011;31579;52.354;16.974;2022-10-16T18:57:08;23.40;;;14.20;;
45863;SDS011;31579;52.354;16.974;2022-10-16T19:02:09;24.10;;;14.50;;
45863;SDS011;31579;52.354;16.974;2022-10-16T19:07:08;24.10;;;14.50;;
45863;SDS011;31579;52.354;16.974;2022-10-16T19:12:08;24.90;;;15.20;;
45863;SDS011;31579;52.354;16.974;2022-10-16T19:17:08;24.90;;;15.20;;
45863;SDS011;31579;52.354;16.974;2022-10-16T19:22:08;28.80;;;17.60;;
45863;SDS011;31579;52.354;16.974;2022-10-16T19:27:08;28.80;;;17.60;;
45863;SDS011;31579;52.354;16.974;2022-10-16T19:32:08;28.80;;;18.70;;
45863;SDS011;31579;52.354;16.974;2022-10-16T19:37:08;28.80;;;18.70;;
45863;SDS011;31579;52.354;16.974;2022-10-16T19:42:11;20.20;;;13.60;;
45863;SDS011;31579;52.354;16.974;2022-10-16T19:47:08;20.20;;;13.60;;
45863;SDS011;31579;52.354;16.974;2022-10-16T19:52:08;34.90;;;21.70;;
45863;SDS011;31579;52.354;16.974;2022-10-16T19:57:08;34.90;;;21.70;;
45863;SDS011;31579;52.354;16.974;2022-10-16T20:02:09;41.40;;;24.40;;
45863;SDS011;31579;52.354;16.974;2022-10-16T20:07:08;41.40;;;24.40;;
45863;SDS011;31579;52.354;16.974;2022-10-16T20:12:08;35.00;;;22.20;;
45863;SDS011;31579;52.354;16.974;2022-10-16T20:17:09;35.00;;;22.20;;
45863;SDS011;31579;52.354;16.974;2022-10-16T20:26:04;25.70;;;15.50;;
45863;SDS011;31579;52.354;16.974;2022-10-16T20:31:06;25.10;;;16.90;;
45863;SDS011;31579;52.354;16.974;2022-10-16T20:36:03;25.10;;;16.90;;
45863;SDS011;31579;52.354;16.974;2022-10-16T20:41:03;30.30;;;19.00;;
45863;SDS011;31579;52.354;16.974;2022-10-16T20:46:04;30.30;;;19.00;;
45863;SDS011;31579;52.354;16.974;2022-10-16T20:56:06;29.00;;;18.40;;
45863;SDS011;31579;52.354;16.974;2022-10-16T20:59:22;32.60;;;17.50;;
45863;SDS011;31579;52.354;16.974;2022-10-16T21:04:20;32.60;;;17.50;;
45863;SDS011;31579;52.354;16.974;2022-10-16T21:09:20;29.00;;;16.50;;
45863;SDS011;31579;52.354;16.974;2022-10-16T21:14:20;29.00;;;16.50;;
45863;SDS011;31579;52.354;16.974;2022-10-16T21:19:20;33.80;;;19.30;;
45863;SDS011;31579;52.354;16.974;2022-10-16T21:24:20;33.80;;;19.30;;
45863;SDS011;31579;52.354;16.974;2022-10-16T21:29:20;43.00;;;24.30;;
45863;SDS011;31579;52.354;16.974;2022-10-16T21:34:20;43.00;;;24.30;;
45863;SDS011;31579;52.354;16.974;2022-10-16T21:39:20;43.40;;;24.20;;
45863;SDS011;31579;52.354;16.974;2022-10-16T21:44:24;43.40;;;24.20;;
45863;SDS011;31579;52.354;16.974;2022-10-16T21:49:20;39.40;;;23.60;;
45863;SDS011;31579;52.354;16.974;2022-10-16T21:54:21;39.40;;;23.60;;
45863;SDS011;31579;52.354;16.974;2022-10-16T21:59:20;47.40;;;29.00;;
45863;SDS011;31579;52.354;16.974;2022-10-16T22:04:20;47.40;;;29.00;;
45863;SDS011;31579;52.354;16.974;2022-10-16T22:09:20;49.00;;;29.50;;
45863;SDS011;31579;52.354;16.974;2022-10-16T22:14:20;49.00;;;29.50;;
45863;SDS011;31579;52.354;16.974;2022-10-16T22:19:20;31.10;;;19.10;;
45863;SDS011;31579;52.354;16.974;2022-10-16T22:24:20;31.10;;;19.10;;
45863;SDS011;31579;52.354;16.974;2022-10-16T22:29:20;50.80;;;28.90;;
45863;SDS011;31579;52.354;16.974;2022-10-16T22:34:20;50.80;;;28.90;;
45863;SDS011;31579;52.354;16.974;2022-10-16T22:39:20;53.70;;;31.90;;
45863;SDS011;31579;52.354;16.974;2022-10-16T22:44:20;53.70;;;31.90;;
45863;SDS011;31579;52.354;16.974;2022-10-16T22:49:24;53.10;;;32.30;;
45863;SDS011;31579;52.354;16.974;2022-10-16T22:54:20;53.10;;;32.30;;
45863;SDS011;31579;52.354;16.974;2022-10-16T22:59:20;55.40;;;35.00;;
45863;SDS011;31579;52.354;16.974;2022-10-16T23:04:20;55.40;;;35.00;;
45863;SDS011;31579;52.354;16.974;2022-10-16T23:09:20;60.90;;;38.20;;
45863;SDS011;31579;52.354;16.974;2022-10-16T23:14:20;60.90;;;38.20;;
45863;SDS011;31579;52.354;16.974;2022-10-16T23:19:20;48.00;;;29.40;;
45863;SDS011;31579;52.354;16.974;2022-10-16T23:24:20;48.00;;;29.40;;
45863;SDS011;31579;52.354;16.974;2022-10-16T23:29:20;44.10;;;26.80;;
45863;SDS011;31579;52.354;16.974;2022-10-16T23:34:20;44.10;;;26.80;;
45863;SDS011;31579;52.354;16.974;2022-10-16T23:39:20;44.20;;;27.10;;
45863;SDS011;31579;52.354;16.974;2022-10-16T23:44:20;44.20;;;27.10;;
45863;SDS011;31579;52.354;16.974;2022-10-16T23:49:20;43.40;;;27.20;;
45863;SDS011;31579;52.354;16.974;2022-10-16T23:54:20;43.40;;;27.20;;
45863;SDS011;31579;52.354;16.974;2022-10-16T23:59:20;43.50;;;27.50;;
